createdAt,value
2023-05-03T00:00:14.819Z,100.00
2023-05-03T00:01:14.828Z,100.00
2023-05-03T00:02:14.888Z,100.00
2023-05-03T00:03:14.875Z,100.00
2023-05-03T00:04:14.860Z,100.00
2023-05-03T00:05:15.043Z,100.00
2023-05-03T00:06:14.921Z,100.00
2023-05-03T00:07:14.895Z,100.00
2023-05-03T00:08:14.925Z,100.00
2023-05-03T00:09:14.931Z,100.00
2023-05-03T00:10:14.950Z,100.00
2023-05-03T00:12:00.197Z,100.00
2023-05-03T00:13:00.203Z,100.00
2023-05-03T00:14:00.207Z,100.00
2023-05-03T00:15:00.217Z,100.00
2023-05-03T00:16:00.184Z,100.00
2023-05-03T00:17:00.226Z,100.00
2023-05-03T00:18:00.275Z,100.00
2023-05-03T00:19:00.205Z,100.00
2023-05-03T00:20:00.465Z,100.00
2023-05-03T00:21:00.230Z,100.00
2023-05-03T00:22:00.246Z,100.00
2023-05-03T00:23:00.263Z,100.00
2023-05-03T00:24:00.276Z,100.00
2023-05-03T00:25:00.242Z,100.00
2023-05-03T00:26:00.201Z,100.00
2023-05-03T00:27:00.244Z,100.00
2023-05-03T00:28:00.253Z,100.00
2023-05-03T00:29:00.255Z,100.00
2023-05-03T00:30:00.747Z,100.00
2023-05-03T00:31:00.374Z,100.00
2023-05-03T00:32:00.458Z,100.00
2023-05-03T00:33:00.290Z,100.00
2023-05-03T00:34:00.263Z,100.00
2023-05-03T00:35:00.260Z,100.00
2023-05-03T00:36:00.258Z,100.00
2023-05-03T00:37:00.261Z,100.00
2023-05-03T00:38:00.260Z,100.00
2023-05-03T00:39:00.268Z,100.00
2023-05-03T00:40:00.408Z,100.00
2023-05-03T00:41:00.242Z,100.00
2023-05-03T00:42:00.250Z,100.00
2023-05-03T00:43:00.260Z,100.00
2023-05-03T00:44:00.253Z,100.00
2023-05-03T00:45:00.265Z,100.00
2023-05-03T00:46:12.324Z,100.00
2023-05-03T00:47:00.256Z,100.00
2023-05-03T00:48:00.320Z,100.00
2023-05-03T00:49:00.271Z,100.00
2023-05-03T00:50:00.768Z,100.00
2023-05-03T00:51:00.383Z,100.00
2023-05-03T00:52:00.422Z,100.00
2023-05-03T00:53:00.427Z,100.00
2023-05-03T00:54:00.473Z,100.00
2023-05-03T00:55:00.467Z,100.00
2023-05-03T00:56:00.449Z,100.00
2023-05-03T00:57:00.493Z,100.00
2023-05-03T00:58:00.477Z,100.00
2023-05-03T00:59:00.514Z,100.00
2023-05-03T01:00:00.891Z,100.00
2023-05-03T01:01:00.505Z,100.00
2023-05-03T01:02:00.661Z,100.00
2023-05-03T01:03:00.611Z,100.00
2023-05-03T01:04:00.735Z,100.00
2023-05-03T01:05:00.584Z,100.00
2023-05-03T01:06:00.597Z,100.00
2023-05-03T01:07:00.590Z,100.00
2023-05-03T01:08:00.620Z,100.00
2023-05-03T01:09:00.625Z,100.00
2023-05-03T01:10:00.752Z,100.00
2023-05-03T01:11:00.618Z,100.00
2023-05-03T01:12:00.659Z,100.00
2023-05-03T01:13:00.657Z,100.00
2023-05-03T01:14:00.681Z,100.00
2023-05-03T01:15:00.672Z,100.00
2023-05-03T01:16:00.708Z,100.00
2023-05-03T01:17:00.701Z,100.00
2023-05-03T01:18:00.760Z,100.00
2023-05-03T01:19:00.765Z,100.00
2023-05-03T01:20:01.029Z,100.00
2023-05-03T01:21:00.747Z,100.00
2023-05-03T01:22:00.756Z,100.00
2023-05-03T01:23:00.781Z,100.00
2023-05-03T01:24:00.817Z,100.00
2023-05-03T01:25:00.808Z,100.00
2023-05-03T01:26:00.834Z,100.00
2023-05-03T01:27:00.845Z,100.00
2023-05-03T01:28:00.848Z,100.00
2023-05-03T01:29:00.872Z,100.00
2023-05-03T01:30:01.250Z,100.00
2023-05-03T01:31:00.922Z,100.00
2023-05-03T01:32:01.009Z,100.00
2023-05-03T01:33:00.938Z,100.00
2023-05-03T01:34:00.939Z,100.00
2023-05-03T01:35:00.914Z,100.00
2023-05-03T01:36:02.835Z,100.00
2023-05-03T01:37:00.948Z,100.00
2023-05-03T01:38:00.989Z,100.00
2023-05-03T01:39:00.988Z,100.00
2023-05-03T01:40:01.310Z,100.00
2023-05-03T01:41:00.986Z,100.00
2023-05-03T01:42:01.015Z,100.00
2023-05-03T01:43:01.018Z,100.00
2023-05-03T01:44:01.032Z,100.00
2023-05-03T01:45:01.061Z,100.00
2023-05-03T01:46:01.083Z,100.00
2023-05-03T01:47:01.064Z,100.00
2023-05-03T01:48:01.110Z,100.00
2023-05-03T01:49:01.100Z,100.00
2023-05-03T01:50:01.250Z,100.00
2023-05-03T01:51:01.132Z,100.00
2023-05-03T01:52:01.130Z,100.00
2023-05-03T01:53:01.155Z,100.00
2023-05-03T01:54:01.163Z,100.00
2023-05-03T01:55:01.189Z,100.00
2023-05-03T01:56:01.179Z,100.00
2023-05-03T01:57:01.206Z,100.00
2023-05-03T01:58:01.205Z,100.00
2023-05-03T01:59:01.210Z,100.00
2023-05-03T02:00:01.673Z,100.00
2023-05-03T02:01:01.295Z,100.00
2023-05-03T02:02:01.254Z,100.00
2023-05-03T02:03:01.282Z,100.00
2023-05-03T02:04:01.325Z,100.00
2023-05-03T02:05:01.341Z,100.00
2023-05-03T02:06:01.370Z,100.00
2023-05-03T02:07:01.301Z,100.00
2023-05-03T02:08:01.312Z,100.00
2023-05-03T02:09:01.348Z,100.00
2023-05-03T02:10:01.705Z,100.00
2023-05-03T02:11:01.377Z,100.00
2023-05-03T02:12:01.370Z,100.00
2023-05-03T02:13:01.384Z,100.00
2023-05-03T02:14:01.424Z,100.00
2023-05-03T02:15:01.410Z,100.00
2023-05-03T02:16:01.414Z,100.00
2023-05-03T02:17:01.559Z,100.00
2023-05-03T02:18:01.505Z,100.00
2023-05-03T02:19:01.435Z,100.00
2023-05-03T02:20:01.709Z,100.00
2023-05-03T02:21:01.469Z,100.00
2023-05-03T02:22:01.481Z,100.00
2023-05-03T02:23:01.504Z,100.00
2023-05-03T02:24:01.530Z,100.00
2023-05-03T02:25:01.527Z,100.00
2023-05-03T02:26:01.527Z,100.00
2023-05-03T02:27:01.549Z,100.00
2023-05-03T02:28:01.578Z,100.00
2023-05-03T02:29:01.564Z,100.00
2023-05-03T02:30:02.152Z,100.00
2023-05-03T02:31:01.619Z,100.00
2023-05-03T02:32:01.626Z,100.00
2023-05-03T02:33:01.659Z,100.00
2023-05-03T02:34:01.652Z,100.00
2023-05-03T02:35:01.660Z,100.00
2023-05-03T02:36:01.668Z,100.00
2023-05-03T02:37:01.700Z,100.00
2023-05-03T02:38:01.674Z,100.00
2023-05-03T02:39:01.713Z,100.00
2023-05-03T02:40:01.949Z,100.00
2023-05-03T02:41:01.725Z,100.00
2023-05-03T02:42:01.736Z,100.00
2023-05-03T02:43:01.732Z,100.00
2023-05-03T02:44:01.729Z,100.00
2023-05-03T02:45:01.737Z,100.00
2023-05-03T02:46:01.792Z,100.00
2023-05-03T02:47:01.806Z,100.00
2023-05-03T02:48:01.858Z,100.00
2023-05-03T02:49:01.818Z,100.00
2023-05-03T02:50:02.156Z,100.00
2023-05-03T02:51:01.826Z,100.00
2023-05-03T02:52:01.850Z,100.00
2023-05-03T02:53:01.952Z,100.00
2023-05-03T02:54:01.944Z,100.00
2023-05-03T02:55:01.897Z,100.00
2023-05-03T02:56:01.925Z,100.00
2023-05-03T02:57:01.890Z,100.00
2023-05-03T02:58:01.946Z,100.00
2023-05-03T02:59:01.949Z,100.00
2023-05-03T03:00:02.387Z,100.00
2023-05-03T03:01:01.934Z,100.00
2023-05-03T03:02:44.265Z,100.00
2023-05-03T03:03:44.301Z,100.00
2023-05-03T03:04:44.193Z,100.00
2023-05-03T03:05:44.234Z,100.00
2023-05-03T03:06:44.259Z,100.00
2023-05-03T03:07:44.206Z,100.00
2023-05-03T03:08:44.249Z,100.00
2023-05-03T03:09:44.215Z,100.00
2023-05-03T03:10:44.233Z,100.00
2023-05-03T03:11:44.192Z,100.00
2023-05-03T03:12:44.201Z,100.00
2023-05-03T03:13:44.283Z,100.00
2023-05-03T03:14:44.243Z,100.00
2023-05-03T03:15:44.252Z,100.00
2023-05-03T03:16:44.198Z,100.00
2023-05-03T03:17:44.251Z,100.00
2023-05-03T03:18:44.205Z,100.00
2023-05-03T03:19:44.218Z,100.00
2023-05-03T03:20:44.230Z,100.00
2023-05-03T03:21:44.221Z,100.00
2023-05-03T03:22:44.217Z,100.00
2023-05-03T03:23:44.225Z,100.00
2023-05-03T03:24:44.253Z,100.00
2023-05-03T03:25:44.228Z,100.00
2023-05-03T03:26:44.216Z,100.00
2023-05-03T03:27:44.224Z,100.00
2023-05-03T03:28:44.248Z,100.00
2023-05-03T03:29:44.228Z,100.00
2023-05-03T03:30:44.227Z,100.00
2023-05-03T03:31:44.316Z,100.00
2023-05-03T03:32:44.263Z,100.00
2023-05-03T03:33:44.245Z,100.00
2023-05-03T03:34:44.224Z,100.00
2023-05-03T03:35:44.256Z,100.00
2023-05-03T03:36:44.232Z,100.00
2023-05-03T03:37:44.246Z,100.00
2023-05-03T03:38:44.387Z,100.00
2023-05-03T03:39:44.369Z,100.00
2023-05-03T03:40:44.381Z,100.00
2023-05-03T03:41:44.405Z,100.00
2023-05-03T03:42:44.400Z,100.00
2023-05-03T03:43:44.461Z,100.00
2023-05-03T03:44:44.451Z,100.00
2023-05-03T03:45:44.472Z,100.00
2023-05-03T03:46:44.795Z,100.00
2023-05-03T03:47:44.535Z,100.00
2023-05-03T03:48:44.510Z,100.00
2023-05-03T03:49:44.493Z,100.00
2023-05-03T03:50:44.522Z,100.00
2023-05-03T03:51:44.527Z,100.00
2023-05-03T03:52:44.529Z,100.00
2023-05-03T03:53:44.573Z,100.00
2023-05-03T03:54:44.551Z,100.00
2023-05-03T03:55:44.578Z,100.00
2023-05-03T03:56:44.634Z,100.00
2023-05-03T03:57:44.599Z,100.00
2023-05-03T03:58:44.595Z,100.00
2023-05-03T03:59:44.597Z,100.00
2023-05-03T04:00:44.651Z,100.00
2023-05-03T04:01:44.708Z,100.00
2023-05-03T04:02:45.762Z,100.00
2023-05-03T04:03:44.784Z,100.00
2023-05-03T04:04:44.691Z,100.00
2023-05-03T04:05:44.693Z,100.00
2023-05-03T04:06:44.775Z,100.00
2023-05-03T04:07:44.706Z,100.00
2023-05-03T04:08:44.757Z,100.00
2023-05-03T04:09:44.769Z,100.00
2023-05-03T04:10:44.774Z,100.00
2023-05-03T04:11:44.774Z,100.00
2023-05-03T04:12:44.800Z,100.00
2023-05-03T04:13:44.775Z,100.00
2023-05-03T04:14:44.813Z,100.00
2023-05-03T04:15:44.809Z,100.00
2023-05-03T04:16:44.821Z,100.00
2023-05-03T04:17:44.931Z,100.00
2023-05-03T04:18:44.919Z,100.00
2023-05-03T04:19:44.871Z,100.00
2023-05-03T04:20:44.900Z,100.00
2023-05-03T04:21:44.884Z,100.00
2023-05-03T04:22:44.913Z,100.00
2023-05-03T04:23:44.897Z,100.00
2023-05-03T04:24:44.913Z,100.00
2023-05-03T04:25:44.977Z,100.00
2023-05-03T04:26:44.951Z,100.00
2023-05-03T04:27:44.991Z,100.00
2023-05-03T04:28:44.948Z,100.00
2023-05-03T04:29:45.085Z,100.00
2023-05-03T04:30:45.032Z,100.00
2023-05-03T04:31:45.033Z,100.00
2023-05-03T04:32:45.106Z,100.00
2023-05-03T04:33:45.021Z,100.00
2023-05-03T04:35:45.064Z,100.00
2023-05-03T04:36:45.051Z,100.00
2023-05-03T04:37:45.118Z,100.00
2023-05-03T04:38:45.096Z,100.00
2023-05-03T04:39:45.156Z,100.00
2023-05-03T04:40:45.114Z,100.00
2023-05-03T04:41:45.164Z,100.00
2023-05-03T04:42:45.303Z,100.00
2023-05-03T04:43:45.192Z,100.00
2023-05-03T04:44:45.167Z,100.00
2023-05-03T04:45:45.178Z,100.00
2023-05-03T04:46:45.221Z,100.00
2023-05-03T04:47:45.285Z,100.00
2023-05-03T04:48:45.198Z,100.00
2023-05-03T04:49:45.190Z,100.00
2023-05-03T04:50:45.279Z,100.00
2023-05-03T04:51:45.229Z,100.00
2023-05-03T04:52:45.291Z,100.00
2023-05-03T04:53:45.274Z,100.00
2023-05-03T04:54:45.303Z,100.00
2023-05-03T04:55:45.311Z,100.00
2023-05-03T04:56:45.332Z,100.00
2023-05-03T04:57:45.310Z,100.00
2023-05-03T04:58:45.363Z,100.00
2023-05-03T04:59:45.372Z,100.00
2023-05-03T05:00:45.392Z,100.00
2023-05-03T05:01:45.437Z,100.00
2023-05-03T05:02:45.463Z,100.00
2023-05-03T05:03:45.542Z,100.00
2023-05-03T05:04:45.410Z,100.00
2023-05-03T05:05:45.421Z,100.00
2023-05-03T05:06:45.533Z,100.00
2023-05-03T05:07:45.414Z,100.00
2023-05-03T05:08:45.466Z,100.00
2023-05-03T05:09:45.458Z,100.00
2023-05-03T05:10:45.457Z,100.00
2023-05-03T05:11:45.461Z,100.00
2023-05-03T05:12:45.494Z,100.00
2023-05-03T05:13:45.515Z,100.00
2023-05-03T05:14:45.722Z,100.00
2023-05-03T05:15:45.582Z,100.00
2023-05-03T05:16:45.634Z,100.00
2023-05-03T05:17:45.602Z,100.00
2023-05-03T05:18:45.574Z,100.00
2023-05-03T05:19:45.610Z,100.00
2023-05-03T05:20:45.555Z,100.00
2023-05-03T05:21:45.576Z,100.00
2023-05-03T05:22:45.593Z,100.00
2023-05-03T05:23:45.612Z,100.00
2023-05-03T05:24:45.587Z,100.00
2023-05-03T05:25:45.553Z,100.00
2023-05-03T05:26:45.560Z,100.00
2023-05-03T05:27:45.556Z,100.00
2023-05-03T05:28:45.558Z,100.00
2023-05-03T05:29:45.559Z,100.00
2023-05-03T05:30:45.572Z,100.00
2023-05-03T05:31:45.607Z,100.00
2023-05-03T05:32:45.573Z,100.00
2023-05-03T05:33:45.646Z,100.00
2023-05-03T05:34:45.926Z,100.00
2023-05-03T05:35:45.549Z,100.00
2023-05-03T05:36:45.560Z,100.00
2023-05-03T05:37:45.568Z,100.00
2023-05-03T05:38:45.617Z,100.00
2023-05-03T05:39:45.579Z,100.00
2023-05-03T05:40:45.574Z,100.00
2023-05-03T05:41:45.594Z,100.00
2023-05-03T05:42:45.580Z,100.00
2023-05-03T05:43:45.604Z,100.00
2023-05-03T05:44:45.605Z,100.00
2023-05-03T05:45:45.573Z,100.00
2023-05-03T05:46:45.604Z,100.00
2023-05-03T05:47:45.615Z,100.00
2023-05-03T05:48:45.573Z,100.00
2023-05-03T05:49:45.606Z,100.00
2023-05-03T05:50:45.619Z,100.00
2023-05-03T05:51:45.613Z,100.00
2023-05-03T05:52:45.604Z,100.00
2023-05-03T05:53:45.577Z,100.00
2023-05-03T05:54:45.614Z,100.00
2023-05-03T05:55:45.610Z,100.00
2023-05-03T05:56:45.651Z,100.00
2023-05-03T05:57:45.595Z,100.00
2023-05-03T05:58:45.592Z,100.00
2023-05-03T05:59:45.598Z,100.00
2023-05-03T06:00:45.586Z,100.00
2023-05-03T06:01:45.627Z,100.00
2023-05-03T06:02:45.812Z,100.00
2023-05-03T06:03:45.598Z,100.00
2023-05-03T06:04:45.660Z,100.00
2023-05-03T06:05:45.676Z,100.00
2023-05-03T06:06:45.614Z,100.00
2023-05-03T06:07:45.624Z,100.00
2023-05-03T06:08:45.599Z,100.00
2023-05-03T06:09:45.618Z,100.00
2023-05-03T06:10:45.607Z,100.00
2023-05-03T06:11:45.648Z,100.00
2023-05-03T06:12:45.606Z,100.00
2023-05-03T06:13:45.623Z,100.00
2023-05-03T06:15:00.974Z,100.00
2023-05-03T06:15:45.635Z,100.00
2023-05-03T06:16:45.648Z,100.00
2023-05-03T06:17:45.647Z,100.00
2023-05-03T06:18:45.610Z,100.00
2023-05-03T06:19:45.606Z,100.00
2023-05-03T06:20:45.609Z,100.00
2023-05-03T06:21:45.637Z,100.00
2023-05-03T06:22:45.593Z,100.00
2023-05-03T06:23:45.629Z,100.00
2023-05-03T06:24:45.609Z,100.00
2023-05-03T06:25:45.615Z,100.00
2023-05-03T06:26:45.680Z,100.00
2023-05-03T06:27:45.609Z,100.00
2023-05-03T06:28:45.628Z,100.00
2023-05-03T06:29:45.659Z,100.00
2023-05-03T06:30:45.661Z,100.00
2023-05-03T06:31:45.701Z,100.00
2023-05-03T06:32:45.660Z,100.00
2023-05-03T06:33:45.652Z,100.00
2023-05-03T06:34:45.627Z,100.00
2023-05-03T06:35:45.632Z,100.00
2023-05-03T06:36:45.636Z,100.00
2023-05-03T06:37:45.676Z,100.00
2023-05-03T06:38:45.663Z,100.00
2023-05-03T06:39:45.639Z,100.00
2023-05-03T06:40:45.638Z,100.00
2023-05-03T06:41:45.627Z,100.00
2023-05-03T06:42:45.648Z,100.00
2023-05-03T06:43:45.636Z,100.00
2023-05-03T06:44:45.655Z,100.00
2023-05-03T06:45:45.643Z,100.00
2023-05-03T06:46:45.671Z,100.00
2023-05-03T06:47:45.661Z,100.00
2023-05-03T06:48:45.701Z,100.00
2023-05-03T06:49:45.638Z,100.00
2023-05-03T06:50:45.638Z,100.00
2023-05-03T06:51:45.645Z,100.00
2023-05-03T06:52:45.693Z,100.00
2023-05-03T06:53:45.644Z,100.00
2023-05-03T06:54:45.630Z,100.00
2023-05-03T06:55:45.649Z,100.00
2023-05-03T06:56:45.645Z,100.00
2023-05-03T06:57:45.647Z,100.00
2023-05-03T06:58:45.659Z,100.00
2023-05-03T06:59:45.654Z,100.00
2023-05-03T07:00:45.666Z,100.00
2023-05-03T07:01:45.688Z,100.00
2023-05-03T07:02:45.711Z,100.00
2023-05-03T07:03:45.770Z,100.00
2023-05-03T07:04:45.657Z,100.00
2023-05-03T07:05:45.648Z,100.00
2023-05-03T07:06:56.090Z,100.00
2023-05-03T07:07:45.634Z,100.00
2023-05-03T07:08:45.670Z,100.00
2023-05-03T07:09:45.659Z,100.00
2023-05-03T07:10:45.650Z,100.00
2023-05-03T07:11:45.680Z,100.00
2023-05-03T07:12:45.654Z,100.00
2023-05-03T07:13:45.716Z,100.00
2023-05-03T07:14:45.642Z,100.00
2023-05-03T07:15:45.762Z,100.00
2023-05-03T07:16:45.798Z,100.00
2023-05-03T07:17:45.700Z,100.00
2023-05-03T07:18:45.716Z,100.00
2023-05-03T07:19:45.688Z,100.00
2023-05-03T07:20:45.665Z,100.00
2023-05-03T07:21:45.661Z,100.00
2023-05-03T07:22:45.660Z,100.00
2023-05-03T07:23:45.674Z,100.00
2023-05-03T07:24:45.717Z,100.00
2023-05-03T07:25:45.780Z,100.00
2023-05-03T07:26:47.225Z,100.00
2023-05-03T07:27:45.682Z,100.00
2023-05-03T07:28:45.682Z,100.00
2023-05-03T07:29:51.413Z,100.00
2023-05-03T07:30:45.688Z,100.00
2023-05-03T07:31:45.664Z,100.00
2023-05-03T07:32:45.871Z,100.00
2023-05-03T07:33:45.784Z,100.00
2023-05-03T07:34:45.676Z,100.00
2023-05-03T07:35:45.675Z,100.00
2023-05-03T07:36:45.790Z,100.00
2023-05-03T07:37:45.673Z,100.00
2023-05-03T07:38:45.710Z,100.00
2023-05-03T07:39:45.702Z,100.00
2023-05-03T07:40:45.666Z,100.00
2023-05-03T07:41:45.667Z,100.00
2023-05-03T07:42:45.696Z,100.00
2023-05-03T07:43:48.687Z,100.00
2023-05-03T07:44:45.681Z,100.00
2023-05-03T07:45:45.747Z,100.00
2023-05-03T07:46:45.711Z,100.00
2023-05-03T07:47:45.717Z,100.00
2023-05-03T07:48:45.718Z,100.00
2023-05-03T07:49:45.697Z,100.00
2023-05-03T07:50:45.707Z,100.00
2023-05-03T07:51:45.709Z,98.06
2023-05-03T07:52:45.714Z,99.32
2023-05-03T07:53:45.709Z,100.00
2023-05-03T07:54:45.687Z,100.00
2023-05-03T07:55:45.722Z,99.50
2023-05-03T07:56:45.736Z,97.22
2023-05-03T07:57:45.772Z,94.72
2023-05-03T07:59:45.719Z,98.19
2023-05-03T08:00:45.732Z,93.02
2023-05-03T08:01:45.714Z,91.52
2023-05-03T08:02:45.873Z,93.62
2023-05-03T08:03:45.887Z,88.85
2023-05-03T08:04:46.238Z,94.30
2023-05-03T08:05:45.882Z,90.21
2023-05-03T08:06:45.777Z,91.02
2023-05-03T08:07:45.727Z,90.16
2023-05-03T08:08:45.735Z,90.05
2023-05-03T08:09:45.768Z,88.21
2023-05-03T08:10:45.715Z,88.27
2023-05-03T08:11:45.734Z,90.48
2023-05-03T08:12:45.734Z,86.08
2023-05-03T08:13:45.764Z,78.11
2023-05-03T08:14:45.738Z,82.01
2023-05-03T08:15:45.798Z,88.52
2023-05-03T08:16:45.763Z,86.67
2023-05-03T08:17:45.827Z,93.47
2023-05-03T08:18:45.765Z,87.69
2023-05-03T08:19:45.766Z,83.33
2023-05-03T08:20:45.773Z,83.67
2023-05-03T08:21:45.822Z,82.23
2023-05-03T08:22:45.861Z,82.35
2023-05-03T08:23:45.762Z,83.66
2023-05-03T08:24:45.766Z,85.24
2023-05-03T08:25:45.764Z,83.88
2023-05-03T08:26:45.755Z,86.57
2023-05-03T08:27:45.751Z,84.52
2023-05-03T08:28:45.764Z,81.09
2023-05-03T08:29:45.785Z,78.99
2023-05-03T08:30:45.796Z,74.59
2023-05-03T08:31:45.792Z,77.75
2023-05-03T08:32:45.794Z,73.78
2023-05-03T08:33:45.766Z,73.03
2023-05-03T08:34:45.815Z,69.81
2023-05-03T08:35:47.542Z,72.80
2023-05-03T08:36:45.791Z,72.79
2023-05-03T08:37:45.802Z,68.85
2023-05-03T08:38:45.782Z,64.65
2023-05-03T08:39:45.780Z,65.18
2023-05-03T08:40:45.790Z,67.96
2023-05-03T08:41:45.777Z,67.17
2023-05-03T08:42:45.818Z,65.03
2023-05-03T08:43:45.797Z,65.35
2023-05-03T08:44:45.895Z,67.23
2023-05-03T08:45:45.776Z,68.85
2023-05-03T08:46:45.874Z,65.41
2023-05-03T08:47:46.006Z,67.31
2023-05-03T08:48:45.807Z,64.22
2023-05-03T08:49:45.785Z,64.06
2023-05-03T08:50:46.070Z,65.83
2023-05-03T08:51:45.799Z,64.85
2023-05-03T08:52:45.823Z,61.80
2023-05-03T08:53:45.812Z,64.93
2023-05-03T08:54:47.160Z,64.40
2023-05-03T08:55:45.801Z,63.39
2023-05-03T08:56:45.789Z,59.81
2023-05-03T08:57:45.795Z,61.22
2023-05-03T08:58:45.797Z,61.42
2023-05-03T08:59:45.781Z,62.13
2023-05-03T09:00:45.820Z,63.56
2023-05-03T09:01:45.889Z,61.84
2023-05-03T09:02:45.914Z,64.23
2023-05-03T09:03:47.501Z,62.55
2023-05-03T09:05:28.250Z,61.70
2023-05-03T09:06:28.051Z,62.75
2023-05-03T09:07:28.035Z,61.74
2023-05-03T09:08:28.003Z,64.64
2023-05-03T09:09:28.034Z,63.35
2023-05-03T09:10:28.009Z,62.04
2023-05-03T09:11:28.078Z,61.64
2023-05-03T09:12:28.037Z,60.94
2023-05-03T09:13:28.005Z,60.51
2023-05-03T09:14:28.013Z,60.87
2023-05-03T09:15:28.024Z,63.72
2023-05-03T09:16:28.045Z,61.92
2023-05-03T09:17:28.018Z,62.32
2023-05-03T09:18:28.027Z,65.19
2023-05-03T09:19:28.043Z,63.84
2023-05-03T09:20:28.012Z,61.61
2023-05-03T09:21:28.043Z,60.10
2023-05-03T09:22:28.037Z,61.71
2023-05-03T09:23:28.034Z,61.65
2023-05-03T09:24:28.023Z,63.00
2023-05-03T09:25:28.026Z,60.77
2023-05-03T09:26:28.020Z,57.49
2023-05-03T09:27:28.036Z,55.81
2023-05-03T09:28:28.039Z,57.12
2023-05-03T09:29:28.068Z,57.62
2023-05-03T09:30:28.033Z,58.88
2023-05-03T09:31:28.095Z,59.22
2023-05-03T09:32:28.082Z,59.19
2023-05-03T09:33:28.081Z,58.13
2023-05-03T09:34:28.041Z,57.15
2023-05-03T09:35:28.031Z,56.15
2023-05-03T09:36:28.065Z,56.50
2023-05-03T09:37:28.048Z,55.61
2023-05-03T09:38:28.062Z,53.11
2023-05-03T09:39:28.048Z,51.89
2023-05-03T09:40:28.059Z,53.07
2023-05-03T09:41:28.073Z,54.49
2023-05-03T09:42:28.073Z,54.51
2023-05-03T09:43:28.238Z,56.58
2023-05-03T09:44:28.202Z,54.94
2023-05-03T09:45:28.202Z,55.24
2023-05-03T09:46:28.288Z,54.73
2023-05-03T09:47:31.998Z,55.58
2023-05-03T09:48:28.238Z,56.29
2023-05-03T09:49:28.263Z,53.03
2023-05-03T09:50:28.251Z,53.40
2023-05-03T09:51:28.293Z,52.72
2023-05-03T09:52:28.262Z,52.45
2023-05-03T09:53:28.262Z,51.92
2023-05-03T09:54:28.268Z,51.77
2023-05-03T09:55:28.271Z,52.54
2023-05-03T09:56:28.290Z,52.56
2023-05-03T09:57:28.295Z,50.79
2023-05-03T09:58:28.303Z,49.61
2023-05-03T09:59:28.327Z,50.27
2023-05-03T10:00:28.448Z,50.33
2023-05-03T10:01:28.407Z,49.61
2023-05-03T10:02:28.382Z,47.82
2023-05-03T10:03:28.445Z,49.16
2023-05-03T10:04:28.494Z,50.25
2023-05-03T10:05:28.414Z,47.57
2023-05-03T10:06:28.449Z,46.52
2023-05-03T10:07:28.422Z,47.58
2023-05-03T10:08:28.446Z,48.42
2023-05-03T10:09:28.468Z,47.49
2023-05-03T10:10:28.474Z,47.28
2023-05-03T10:11:28.469Z,48.11
2023-05-03T10:12:28.505Z,48.27
2023-05-03T10:13:28.510Z,49.41
2023-05-03T10:14:28.530Z,47.84
2023-05-03T10:15:28.533Z,47.59
2023-05-03T10:16:28.812Z,47.64
2023-05-03T10:17:43.376Z,47.62
2023-05-03T10:18:28.594Z,49.41
2023-05-03T10:19:28.583Z,50.66
2023-05-03T10:20:28.572Z,49.25
2023-05-03T10:21:28.549Z,48.90
2023-05-03T10:22:28.552Z,49.47
2023-05-03T10:23:28.573Z,48.84
2023-05-03T10:24:28.552Z,48.52
2023-05-03T10:25:28.599Z,47.29
2023-05-03T10:26:28.573Z,47.00
2023-05-03T10:27:28.565Z,46.07
2023-05-03T10:28:28.593Z,45.04
2023-05-03T10:29:28.558Z,46.48
2023-05-03T10:30:28.729Z,47.62
2023-05-03T10:31:28.627Z,47.11
2023-05-03T10:32:28.614Z,45.84
2023-05-03T10:33:28.587Z,45.53
2023-05-03T10:34:28.584Z,45.74
2023-05-03T10:35:28.605Z,46.52
2023-05-03T10:36:35.362Z,46.38
2023-05-03T10:37:28.570Z,45.28
2023-05-03T10:38:28.594Z,44.05
2023-05-03T10:39:28.601Z,43.73
2023-05-03T10:40:28.612Z,44.36
2023-05-03T10:41:28.605Z,43.54
2023-05-03T10:42:28.601Z,44.32
2023-05-03T10:43:28.598Z,44.87
2023-05-03T10:44:28.598Z,43.51
2023-05-03T10:45:28.643Z,42.37
2023-05-03T10:46:28.643Z,42.70
2023-05-03T10:47:28.629Z,44.31
2023-05-03T10:48:28.651Z,44.26
2023-05-03T10:49:28.592Z,45.08
2023-05-03T10:50:28.643Z,44.41
2023-05-03T10:51:28.611Z,43.65
2023-05-03T10:52:28.585Z,42.70
2023-05-03T10:53:28.644Z,43.21
2023-05-03T10:54:28.602Z,42.69
2023-05-03T10:55:28.630Z,42.52
2023-05-03T10:56:28.593Z,41.42
2023-05-03T10:57:28.600Z,41.21
2023-05-03T10:58:28.617Z,41.05
2023-05-03T10:59:28.612Z,41.17
2023-05-03T11:00:28.625Z,41.41
2023-05-03T11:01:28.661Z,41.94
2023-05-03T11:02:28.664Z,42.14
2023-05-03T11:03:28.593Z,41.92
2023-05-03T11:04:29.742Z,41.98
2023-05-03T11:05:28.630Z,40.81
2023-05-03T11:06:28.688Z,40.68
2023-05-03T11:07:28.651Z,41.39
2023-05-03T11:08:28.623Z,40.77
2023-05-03T11:09:28.657Z,40.64
2023-05-03T11:10:28.661Z,40.51
2023-05-03T11:11:28.625Z,39.63
2023-05-03T11:12:28.629Z,41.15
2023-05-03T11:13:28.650Z,42.39
2023-05-03T11:14:28.696Z,42.34
2023-05-03T11:15:28.646Z,41.32
2023-05-03T11:16:28.730Z,41.40
2023-05-03T11:17:28.699Z,40.52
2023-05-03T11:18:28.634Z,39.78
2023-05-03T11:19:28.651Z,39.79
2023-05-03T11:20:28.659Z,39.21
2023-05-03T11:21:28.680Z,39.54
2023-05-03T11:22:28.638Z,40.04
2023-05-03T11:23:28.630Z,40.20
2023-05-03T11:24:28.639Z,41.26
2023-05-03T11:25:28.660Z,42.30
2023-05-03T11:26:28.721Z,41.55
2023-05-03T11:27:28.640Z,40.52
2023-05-03T11:28:28.683Z,41.03
2023-05-03T11:29:28.661Z,40.32
2023-05-03T11:30:28.656Z,40.04
2023-05-03T11:31:28.701Z,39.84
2023-05-03T11:32:28.707Z,40.41
2023-05-03T11:33:28.679Z,41.12
2023-05-03T11:34:28.670Z,40.75
2023-05-03T11:35:28.659Z,40.83
2023-05-03T11:36:28.688Z,40.86
2023-05-03T11:37:28.724Z,40.61
2023-05-03T11:38:28.744Z,40.62
2023-05-03T11:39:28.716Z,38.74
2023-05-03T11:40:28.742Z,39.46
2023-05-03T11:41:28.760Z,38.21
2023-05-03T11:42:28.751Z,39.04
2023-05-03T11:43:28.783Z,38.76
2023-05-03T11:44:28.782Z,38.16
2023-05-03T11:45:28.811Z,39.09
2023-05-03T11:46:29.050Z,38.50
2023-05-03T11:47:28.868Z,39.01
2023-05-03T11:48:28.871Z,38.27
2023-05-03T11:49:28.874Z,37.15
2023-05-03T11:50:28.878Z,37.32
2023-05-03T11:51:28.921Z,37.52
2023-05-03T11:52:28.938Z,37.11
2023-05-03T11:53:28.912Z,36.55
2023-05-03T11:54:28.920Z,36.14
2023-05-03T11:55:28.940Z,37.05
2023-05-03T11:56:28.952Z,37.83
2023-05-03T11:57:28.970Z,36.64
2023-05-03T11:58:28.982Z,36.69
2023-05-03T11:59:29.007Z,36.11
2023-05-03T12:00:28.991Z,36.06
2023-05-03T12:01:29.136Z,36.27
2023-05-03T12:02:29.121Z,35.98
2023-05-03T12:03:31.750Z,36.97
2023-05-03T12:04:29.169Z,37.19
2023-05-03T12:05:29.332Z,37.32
2023-05-03T12:06:29.970Z,36.68
2023-05-03T12:07:29.520Z,36.52
2023-05-03T12:08:29.822Z,37.44
2023-05-03T12:09:29.591Z,37.63
2023-05-03T12:10:29.887Z,37.58
2023-05-03T12:12:50.072Z,36.78
2023-05-03T12:13:47.812Z,37.92
2023-05-03T12:14:46.747Z,35.93
2023-05-03T12:15:53.158Z,36.41
2023-05-03T12:16:46.799Z,36.75
2023-05-03T12:17:49.617Z,37.09
2023-05-03T12:18:47.426Z,35.89
2023-05-03T12:19:48.753Z,35.85
2023-05-03T12:21:54.856Z,34.99
2023-05-03T12:22:46.868Z,33.92
2023-05-03T12:23:46.731Z,34.21
2023-05-03T12:24:49.214Z,34.85
2023-05-03T12:25:49.044Z,35.13
2023-05-03T12:26:47.985Z,34.62
2023-05-03T12:27:52.611Z,34.70
2023-05-03T12:28:46.745Z,35.66
2023-05-03T12:29:47.397Z,35.23
2023-05-03T12:30:46.998Z,35.65
2023-05-03T12:31:49.178Z,34.71
2023-05-03T12:32:46.777Z,35.02
2023-05-03T12:34:01.478Z,35.31
2023-05-03T12:35:48.193Z,35.44
2023-05-03T12:36:48.808Z,35.79
2023-05-03T12:37:49.379Z,34.63
2023-05-03T12:38:48.980Z,34.76
2023-05-03T12:39:54.222Z,35.31
2023-05-03T12:40:46.773Z,35.52
2023-05-03T12:42:46.713Z,35.04
2023-05-03T12:43:46.752Z,34.57
2023-05-03T12:44:48.119Z,35.46
2023-05-03T12:45:51.513Z,35.77